Vremea acum in Bechet - Romania

Vrei sa afli care e starea vremii acum in Mehedinti - Romania? Dorim sa iti furnizam starea vremii pentru Mehedinti - Romania. Starea vremii Mehedinti - Romania pentru astazi.

Vremea acum in Bechet

Temperatura: 22.5 °C

Este: Senin
Se simte ca: 24.6 °C
Innorat: 6 %
Precipitatii: 0 %
Presiune atmosferica: 1015 hPa
Umiditate: 51%
Vizibilitate: 10 km
Vantul bate din WNW cu 5.4 km/h

Evolutia vremii in Bechet pe ore

Ora: 13:00
Senin
Temperatura: 23.7°C
Sansa de precipitatii: 0%
Ora Descriere Temp Se simte Precipitatii Umiditate Vant
00:00Senin15°15°0%65%S 9.4 KM/H
01:00Senin14.5°14.1°0%66%S 9.4 KM/H
02:00Senin13.9°13.7°0%68%S 7.2 KM/H
03:00Senin13.5°13.3°0%69%SSE 6.8 KM/H
04:00Senin13.1°12.9°0%70%S 6.8 KM/H
05:00Senin12.7°13°0%72%SE 4.3 KM/H
06:00Senin12°12°0%75%E 5.4 KM/H
07:00Senin12.3°12.4°0%76%ESE 5 KM/H
08:00Senin15.5°15.5°0%69%SE 4.7 KM/H
09:00Senin17.5°17.5°0%63%S 4.3 KM/H
10:00Senin19.3°19.3°0%59%WSW 4.7 KM/H
11:00Senin21.1°21.1°0%55%W 4.7 KM/H
12:00Senin22.5°24.6°0%51%WNW 5.4 KM/H
13:00Senin23.7°24.9°0%47%NW 6.1 KM/H
14:00Senin24.7°25.3°0%43%NNW 6.1 KM/H
15:00Senin25.4°25.6°0%40%NNW 5 KM/H
16:00Senin25.6°25.6°0%38%N 4 KM/H
17:00Senin25.7°25.6°0%37%NE 3.2 KM/H
18:00Senin25.6°25.6°0%37%E 3.2 KM/H
19:00Senin25°25.7°0%47%ESE 3.2 KM/H
20:00Senin20.8°20.8°0%51%SE 4 KM/H
21:00Senin18.9°18.9°0%53%SE 6.1 KM/H
22:00Senin17.8°17.8°0%57%SE 6.5 KM/H
23:00Senin17.1°17.1°0%61%SSE 6.1 KM/H




tutorials